createdAt,value
2023-02-11T00:00:41.869Z,147.63
2023-02-11T00:02:46.065Z,233.52
2023-02-11T00:04:49.001Z,172.52
2023-02-11T00:06:50.612Z,83.90
2023-02-11T00:08:52.314Z,73.13
2023-02-11T00:10:55.565Z,69.85
2023-02-11T00:12:57.172Z,73.90
2023-02-11T00:14:58.669Z,70.90
2023-02-11T00:17:00.183Z,73.28
2023-02-11T00:19:03.346Z,73.68
2023-02-11T00:21:14.174Z,70.80
2023-02-11T00:23:15.661Z,180.35
2023-02-11T00:25:17.195Z,193.48
2023-02-11T00:27:18.918Z,103.82
2023-02-11T00:29:20.422Z,86.78
2023-02-11T00:31:23.200Z,91.57
2023-02-11T00:33:24.866Z,83.65
2023-02-11T00:35:26.404Z,92.03
2023-02-11T00:37:28.124Z,92.47
2023-02-11T00:39:29.899Z,90.35
2023-02-11T00:41:31.466Z,83.32
2023-02-11T00:43:33.050Z,81.75
2023-02-11T00:45:34.562Z,190.60
2023-02-11T00:47:36.583Z,264.40
2023-02-11T00:49:40.364Z,192.05
2023-02-11T00:51:41.992Z,394.52
2023-02-11T00:53:43.611Z,314.20
2023-02-11T00:55:45.319Z,115.72
2023-02-11T00:57:46.903Z,133.48
2023-02-11T00:59:48.605Z,88.07
2023-02-11T01:01:50.302Z,80.57
2023-02-11T01:03:51.930Z,124.50
2023-02-11T01:05:54.183Z,108.40
2023-02-11T01:07:55.864Z,109.40
2023-02-11T01:09:57.440Z,216.60
2023-02-11T01:11:59.022Z,168.40
2023-02-11T01:14:00.622Z,129.70
2023-02-11T01:16:02.216Z,117.35
2023-02-11T01:18:05.277Z,157.00
2023-02-11T01:20:09.529Z,110.45
2023-02-11T01:22:11.090Z,91.15
2023-02-11T01:24:12.639Z,83.90
2023-02-11T01:26:14.185Z,85.15
2023-02-11T01:28:24.391Z,92.97
2023-02-11T01:30:25.982Z,104.13
2023-02-11T01:32:27.608Z,107.30
2023-02-11T01:34:29.119Z,103.97
2023-02-11T01:36:30.658Z,89.40
2023-02-11T01:38:33.297Z,94.07
2023-02-11T01:40:35.053Z,94.53
2023-02-11T01:42:36.747Z,105.63
2023-02-11T01:44:40.200Z,94.43
2023-02-11T01:46:41.971Z,110.72
2023-02-11T01:48:57.764Z,98.85
2023-02-11T01:51:04.876Z,114.40
2023-02-11T01:53:25.409Z,102.15
2023-02-11T01:55:45.434Z,102.53
2023-02-11T01:57:51.149Z,157.02
2023-02-11T01:59:56.882Z,97.00
2023-02-11T02:02:02.453Z,82.13
2023-02-11T02:04:06.509Z,85.80
2023-02-11T02:06:16.743Z,89.80
2023-02-11T02:08:40.659Z,88.82
2023-02-11T02:10:45.852Z,100.80
2023-02-11T02:12:47.470Z,83.07
2023-02-11T02:14:49.061Z,89.20
2023-02-11T02:16:50.690Z,88.68
2023-02-11T02:19:11.028Z,93.40
2023-02-11T02:21:32.536Z,90.57
2023-02-11T02:24:07.336Z,94.45
2023-02-11T02:26:30.643Z,99.20
2023-02-11T02:28:53.942Z,99.85
2023-02-11T02:31:14.460Z,90.47
2023-02-11T02:33:48.035Z,96.22
2023-02-11T02:36:01.539Z,88.50
2023-02-11T02:38:16.194Z,94.30
2023-02-11T02:40:25.118Z,97.07
2023-02-11T02:42:26.859Z,94.28
2023-02-11T02:44:29.491Z,90.70
2023-02-11T02:46:33.455Z,96.97
2023-02-11T02:48:35.842Z,91.35
2023-02-11T02:50:38.043Z,104.78
2023-02-11T02:52:51.885Z,96.78
2023-02-11T02:54:53.367Z,89.72
2023-02-11T02:57:04.944Z,87.70
2023-02-11T02:59:25.304Z,89.65
2023-02-11T03:01:50.517Z,100.65
2023-02-11T03:04:35.804Z,106.55
2023-02-11T03:07:16.560Z,113.82
2023-02-11T03:09:36.349Z,101.07
2023-02-11T03:11:38.002Z,93.15
2023-02-11T03:13:40.374Z,88.70
2023-02-11T03:15:44.607Z,85.43
2023-02-11T03:17:49.254Z,92.03
2023-02-11T03:19:51.792Z,82.57
2023-02-11T03:21:53.634Z,95.80
2023-02-11T03:23:58.138Z,89.65
2023-02-11T03:26:02.330Z,89.25
2023-02-11T03:28:13.842Z,92.60
2023-02-11T03:30:26.329Z,82.30
2023-02-11T03:32:32.878Z,93.10
2023-02-11T03:34:55.285Z,95.00
2023-02-11T03:37:02.604Z,83.63
2023-02-11T03:39:05.849Z,93.72
2023-02-11T03:41:09.358Z,84.18
2023-02-11T03:43:17.606Z,79.45
2023-02-11T03:45:23.534Z,84.88
2023-02-11T03:47:27.958Z,73.75
2023-02-11T03:49:32.110Z,77.53
2023-02-11T03:51:34.807Z,74.32
2023-02-11T03:53:37.430Z,72.35
2023-02-11T03:55:40.384Z,77.13
2023-02-11T03:57:41.983Z,79.82
2023-02-11T03:59:58.706Z,70.20
2023-02-11T04:02:00.298Z,76.30
2023-02-11T04:04:01.822Z,86.82
2023-02-11T04:06:03.917Z,84.28
2023-02-11T04:08:05.860Z,74.45
2023-02-11T04:10:08.063Z,84.05
2023-02-11T04:12:09.557Z,71.32
2023-02-11T04:14:11.034Z,77.38
2023-02-11T04:16:12.607Z,66.13
2023-02-11T04:18:14.152Z,74.80
2023-02-11T04:20:15.917Z,79.07
2023-02-11T04:22:17.468Z,72.82
2023-02-11T04:24:19.078Z,77.30
2023-02-11T04:26:21.304Z,68.28
2023-02-11T04:28:23.005Z,66.63
2023-02-11T04:30:24.668Z,71.95
2023-02-11T04:32:26.178Z,67.45
2023-02-11T04:34:27.765Z,69.45
2023-02-11T04:36:29.349Z,62.88
2023-02-11T04:38:30.867Z,60.42
2023-02-11T04:40:32.370Z,58.67
2023-02-11T04:42:33.980Z,62.47
2023-02-11T04:44:35.484Z,54.95
2023-02-11T04:46:37.032Z,60.55
2023-02-11T04:48:38.787Z,63.28
2023-02-11T04:50:41.400Z,61.45
2023-02-11T04:52:42.916Z,71.15
2023-02-11T04:54:44.685Z,66.85
2023-02-11T04:56:46.256Z,61.92
2023-02-11T04:58:47.886Z,58.58
2023-02-11T05:00:49.406Z,57.88
2023-02-11T05:02:50.937Z,54.53
2023-02-11T05:04:52.456Z,61.28
2023-02-11T05:06:53.943Z,56.72
2023-02-11T05:08:55.528Z,57.45
2023-02-11T05:10:57.162Z,66.78
2023-02-11T05:12:58.708Z,64.60
2023-02-11T05:15:00.249Z,55.42
2023-02-11T05:17:01.938Z,56.30
2023-02-11T05:19:03.557Z,61.67
2023-02-11T05:21:14.630Z,59.22
2023-02-11T05:23:16.210Z,61.50
2023-02-11T05:25:17.928Z,61.83
2023-02-11T05:27:19.473Z,66.43
2023-02-11T05:29:21.083Z,64.68
2023-02-11T05:31:22.746Z,63.75
2023-02-11T05:33:24.394Z,61.97
2023-02-11T05:35:25.860Z,64.47
2023-02-11T05:37:27.464Z,67.68
2023-02-11T05:39:29.012Z,72.28
2023-02-11T05:41:30.494Z,81.85
2023-02-11T05:43:32.543Z,96.05
2023-02-11T05:45:34.049Z,81.43
2023-02-11T05:47:35.578Z,89.55
2023-02-11T05:49:37.102Z,71.43
2023-02-11T05:51:38.671Z,67.47
2023-02-11T05:53:40.303Z,76.40
2023-02-11T05:55:41.865Z,78.53
2023-02-11T05:57:43.478Z,80.25
2023-02-11T05:59:44.995Z,86.32
2023-02-11T06:01:46.649Z,96.45
2023-02-11T06:03:50.056Z,89.07
2023-02-11T06:05:52.038Z,83.68
2023-02-11T06:07:53.710Z,77.07
2023-02-11T06:09:55.216Z,78.38
2023-02-11T06:11:56.710Z,77.72
2023-02-11T06:13:58.242Z,77.53
2023-02-11T06:16:01.778Z,85.30
2023-02-11T06:18:03.449Z,83.13
2023-02-11T06:20:08.573Z,73.25
2023-02-11T06:22:10.327Z,80.05
2023-02-11T06:24:12.659Z,76.80
2023-02-11T06:26:19.751Z,66.90
2023-02-11T06:28:21.435Z,74.10
2023-02-11T06:30:23.003Z,70.03
2023-02-11T06:32:42.752Z,70.43
2023-02-11T06:34:45.765Z,67.18
2023-02-11T06:36:47.694Z,74.93
2023-02-11T06:38:49.724Z,82.35
2023-02-11T06:40:51.355Z,104.65
2023-02-11T06:42:53.271Z,94.88
2023-02-11T06:44:54.837Z,113.40
2023-02-11T06:46:56.508Z,96.45
2023-02-11T06:48:58.080Z,132.10
2023-02-11T06:51:05.154Z,97.30
2023-02-11T06:53:06.647Z,114.88
2023-02-11T06:55:08.415Z,156.75
2023-02-11T06:57:09.958Z,132.57
2023-02-11T06:59:20.870Z,118.72
2023-02-11T07:01:23.490Z,107.00
2023-02-11T07:03:25.502Z,137.15
2023-02-11T07:05:27.022Z,69.95
2023-02-11T07:07:28.539Z,144.15
2023-02-11T07:09:30.178Z,114.15
2023-02-11T07:11:32.309Z,113.72
2023-02-11T07:13:33.825Z,105.20
2023-02-11T07:15:36.990Z,93.63
2023-02-11T07:17:38.624Z,101.95
2023-02-11T07:19:40.198Z,73.55
2023-02-11T07:21:41.738Z,76.70
2023-02-11T07:23:43.656Z,101.45
2023-02-11T07:25:45.257Z,72.57
2023-02-11T07:27:46.825Z,65.97
2023-02-11T07:29:48.805Z,101.63
2023-02-11T07:31:50.573Z,87.10
2023-02-11T07:33:54.305Z,72.72
2023-02-11T07:35:55.886Z,101.72
2023-02-11T07:37:57.419Z,101.32
2023-02-11T07:39:58.916Z,85.78
2023-02-11T07:42:00.414Z,104.50
2023-02-11T07:44:03.594Z,87.43
2023-02-11T07:46:07.517Z,183.55
2023-02-11T07:48:09.109Z,96.25
2023-02-11T07:50:10.722Z,81.32
2023-02-11T07:52:12.290Z,84.53
2023-02-11T07:54:13.805Z,90.15
2023-02-11T07:56:16.617Z,77.70
2023-02-11T07:58:18.077Z,64.00
2023-02-11T08:00:21.177Z,68.85
2023-02-11T08:02:22.912Z,62.78
2023-02-11T08:04:24.518Z,60.05
2023-02-11T08:06:29.359Z,70.40
2023-02-11T08:08:31.004Z,54.13
2023-02-11T08:10:32.638Z,57.35
2023-02-11T08:12:34.629Z,51.97
2023-02-11T08:14:36.887Z,52.30
2023-02-11T08:16:39.418Z,54.38
2023-02-11T08:18:41.127Z,50.15
2023-02-11T08:20:42.704Z,54.67
2023-02-11T08:22:44.293Z,52.75
2023-02-11T08:24:45.845Z,48.92
2023-02-11T08:26:47.509Z,57.08
2023-02-11T08:28:50.521Z,48.35
2023-02-11T08:30:52.516Z,48.00
2023-02-11T08:32:54.315Z,46.95
2023-02-11T08:34:56.105Z,51.35
2023-02-11T08:36:57.828Z,48.58
2023-02-11T08:39:17.387Z,48.75
2023-02-11T08:41:19.951Z,53.88
2023-02-11T08:43:21.671Z,47.33
2023-02-11T08:45:23.210Z,40.08
2023-02-11T08:47:24.757Z,59.63
2023-02-11T08:49:26.510Z,47.85
2023-02-11T08:51:33.070Z,55.55
2023-02-11T08:53:35.332Z,91.97
2023-02-11T08:55:36.893Z,60.70
2023-02-11T08:57:38.403Z,67.40
2023-02-11T08:59:40.147Z,74.32
2023-02-11T09:01:42.022Z,58.00
2023-02-11T09:03:43.696Z,71.18
2023-02-11T09:05:47.276Z,73.95
2023-02-11T09:07:48.922Z,69.68
2023-02-11T09:09:50.465Z,61.75
2023-02-11T09:11:52.260Z,53.05
2023-02-11T09:13:54.617Z,64.80
2023-02-11T09:15:56.978Z,68.00
2023-02-11T09:17:58.707Z,58.10
2023-02-11T09:20:00.289Z,61.25
2023-02-11T09:22:02.086Z,76.15
2023-02-11T09:24:03.960Z,59.92
2023-02-11T09:26:10.337Z,73.50
2023-02-11T09:28:11.962Z,53.63
2023-02-11T09:30:13.779Z,59.22
2023-02-11T09:32:15.550Z,59.05
2023-02-11T09:34:17.317Z,66.10
2023-02-11T09:36:21.803Z,57.42
2023-02-11T09:38:23.746Z,59.28
2023-02-11T09:40:25.301Z,58.05
2023-02-11T09:42:42.841Z,54.58
2023-02-11T09:44:46.333Z,58.33
2023-02-11T09:46:55.640Z,48.75
2023-02-11T09:48:57.787Z,47.40
2023-02-11T09:51:04.063Z,60.58
2023-02-11T09:53:18.308Z,53.58
2023-02-11T09:55:26.676Z,45.92
2023-02-11T09:57:36.778Z,48.35
2023-02-11T09:59:38.357Z,40.30
2023-02-11T10:02:09.845Z,63.40
2023-02-11T10:04:20.723Z,54.55
2023-02-11T10:06:44.042Z,83.95
2023-02-11T10:09:00.132Z,47.75
2023-02-11T10:11:31.563Z,46.92
2023-02-11T10:13:43.859Z,52.72
2023-02-11T10:15:56.157Z,53.55
2023-02-11T10:18:12.903Z,52.10
2023-02-11T10:20:44.907Z,57.42
2023-02-11T10:22:52.265Z,99.60
2023-02-11T10:25:02.819Z,50.08
2023-02-11T10:27:19.417Z,51.22
2023-02-11T10:29:42.230Z,50.25
2023-02-11T10:31:47.063Z,177.75
2023-02-11T10:34:04.813Z,50.67
2023-02-11T10:36:06.732Z,119.10
2023-02-11T10:38:09.292Z,60.50
2023-02-11T10:40:22.659Z,67.07
2023-02-11T10:42:25.162Z,69.85
2023-02-11T10:45:05.128Z,109.57
2023-02-11T10:47:18.685Z,42.80
2023-02-11T10:49:40.125Z,60.03
2023-02-11T10:51:41.691Z,55.65
2023-02-11T10:53:43.447Z,46.28
2023-02-11T10:55:57.276Z,44.13
2023-02-11T10:58:01.614Z,42.47
2023-02-11T11:00:37.143Z,45.83
2023-02-11T11:02:44.111Z,932.05
2023-02-11T11:04:46.195Z,1054.85
2023-02-11T11:06:47.958Z,386.48
2023-02-11T11:08:51.662Z,310.95
2023-02-11T11:11:06.326Z,508.70
2023-02-11T11:13:24.219Z,124.90
2023-02-11T11:15:28.734Z,271.17
2023-02-11T11:17:30.518Z,60.00
2023-02-11T11:19:33.153Z,46.97
2023-02-11T11:21:46.860Z,91.95
2023-02-11T11:23:58.230Z,55.08
2023-02-11T11:26:09.486Z,65.40
2023-02-11T11:28:24.347Z,85.95
2023-02-11T11:30:33.356Z,61.65
2023-02-11T11:32:37.237Z,100.38
2023-02-11T11:34:48.568Z,225.68
2023-02-11T11:36:50.757Z,276.30
2023-02-11T11:38:58.836Z,204.00
2023-02-11T11:41:33.856Z,74.10
2023-02-11T11:43:37.631Z,81.30
2023-02-11T11:45:39.847Z,88.50
2023-02-11T11:47:52.632Z,68.40
2023-02-11T11:50:12.713Z,67.43
2023-02-11T11:52:35.605Z,66.18
2023-02-11T11:54:37.514Z,65.22
2023-02-11T11:57:06.103Z,90.18
2023-02-11T11:59:17.134Z,130.80
2023-02-11T12:01:30.532Z,85.60
2023-02-11T12:04:09.882Z,144.68
2023-02-11T12:06:14.046Z,73.18
2023-02-11T12:08:39.868Z,64.25
2023-02-11T12:11:00.192Z,60.42
2023-02-11T12:13:43.050Z,49.88
2023-02-11T12:15:57.230Z,100.32
2023-02-11T12:18:38.834Z,80.97
2023-02-11T12:21:13.128Z,67.53
2023-02-11T12:23:26.418Z,63.90
2023-02-11T12:25:35.960Z,56.30
2023-02-11T12:27:48.057Z,61.17
2023-02-11T12:30:00.499Z,56.80
2023-02-11T12:32:32.245Z,67.15
2023-02-11T12:35:26.188Z,65.32
2023-02-11T12:37:53.743Z,69.80
2023-02-11T12:40:42.643Z,92.10
2023-02-11T12:43:08.948Z,79.10
2023-02-11T12:45:14.048Z,80.80
2023-02-11T12:47:18.557Z,71.07
2023-02-11T12:49:42.144Z,75.32
2023-02-11T12:51:58.665Z,75.95
2023-02-11T12:54:07.484Z,107.80
2023-02-11T12:56:26.094Z,74.70
2023-02-11T12:58:44.026Z,66.28
2023-02-11T13:01:12.109Z,128.13
2023-02-11T13:03:33.279Z,126.55
2023-02-11T13:05:46.277Z,80.25
2023-02-11T13:07:50.008Z,145.10
2023-02-11T13:09:58.160Z,100.35
2023-02-11T13:12:23.606Z,68.80
2023-02-11T13:14:35.289Z,72.22
2023-02-11T13:16:39.828Z,71.90
2023-02-11T13:19:03.813Z,84.18
2023-02-11T13:21:23.923Z,92.53
2023-02-11T13:23:36.975Z,104.22
2023-02-11T13:25:47.674Z,269.52
2023-02-11T13:28:03.104Z,210.18
2023-02-11T13:30:28.266Z,132.60
2023-02-11T13:32:56.095Z,190.07
2023-02-11T13:34:58.928Z,80.68
2023-02-11T13:37:00.481Z,89.97
2023-02-11T13:39:05.886Z,63.58
2023-02-11T13:41:18.007Z,71.10
2023-02-11T13:43:24.841Z,70.47
2023-02-11T13:45:47.418Z,71.45
2023-02-11T13:47:52.384Z,107.25
2023-02-11T13:49:54.474Z,70.68
2023-02-11T13:51:57.178Z,67.72
2023-02-11T13:53:59.512Z,61.78
2023-02-11T13:56:11.563Z,61.90
2023-02-11T13:58:19.937Z,61.35
2023-02-11T14:00:34.017Z,53.17
2023-02-11T14:02:55.708Z,52.42
2023-02-11T14:05:25.199Z,60.58
2023-02-11T14:07:51.789Z,55.17
2023-02-11T14:09:57.094Z,56.15
2023-02-11T14:12:33.162Z,57.33
2023-02-11T14:15:00.343Z,53.25
2023-02-11T14:17:06.979Z,58.97
2023-02-11T14:19:08.788Z,48.88
2023-02-11T14:21:22.022Z,58.92
2023-02-11T14:23:27.406Z,63.72
2023-02-11T14:25:29.982Z,57.72
2023-02-11T14:27:42.188Z,63.92
2023-02-11T14:29:51.167Z,77.20
2023-02-11T14:31:52.775Z,85.22
2023-02-11T14:34:12.757Z,83.00
2023-02-11T14:36:43.982Z,83.30
2023-02-11T14:39:25.808Z,78.32
2023-02-11T14:41:35.662Z,116.63
2023-02-11T14:45:53.946Z,77.75
2023-02-11T14:48:05.643Z,68.32
2023-02-11T14:50:14.370Z,74.18
2023-02-11T14:52:29.578Z,61.85
2023-02-11T14:54:32.258Z,90.10
2023-02-11T14:56:34.588Z,74.53
2023-02-11T14:58:36.209Z,96.95
2023-02-11T15:00:51.643Z,109.18
2023-02-11T15:02:53.863Z,95.10
2023-02-11T15:05:13.371Z,86.82
2023-02-11T15:07:16.058Z,135.15
2023-02-11T15:09:41.928Z,95.95
2023-02-11T15:11:46.890Z,106.15
2023-02-11T15:13:50.396Z,159.30
2023-02-11T15:15:56.036Z,168.98
2023-02-11T15:18:00.830Z,128.85
2023-02-11T15:20:02.739Z,127.55
2023-02-11T15:22:07.351Z,144.93
2023-02-11T15:24:30.874Z,152.80
2023-02-11T15:26:32.998Z,135.52
2023-02-11T15:28:35.533Z,123.65
2023-02-11T15:30:37.267Z,140.35
2023-02-11T15:32:45.255Z,129.43
2023-02-11T15:34:48.251Z,143.75
2023-02-11T15:36:50.016Z,157.77
2023-02-11T15:39:17.460Z,139.90
2023-02-11T15:41:36.807Z,125.18
2023-02-11T15:43:47.410Z,112.63
2023-02-11T15:45:52.054Z,121.22
2023-02-11T15:47:59.814Z,121.15
2023-02-11T15:50:01.881Z,134.20
2023-02-11T15:52:04.363Z,108.05
2023-02-11T15:54:19.188Z,120.65
2023-02-11T15:56:25.606Z,132.70
2023-02-11T15:58:27.359Z,114.25
2023-02-11T16:00:36.232Z,127.88
2023-02-11T16:02:44.937Z,130.90
2023-02-11T16:04:52.253Z,124.97
2023-02-11T16:06:55.837Z,131.10
2023-02-11T16:09:25.678Z,110.88
2023-02-11T16:11:53.727Z,146.57
2023-02-11T16:13:55.636Z,140.55
2023-02-11T16:16:02.557Z,153.20
2023-02-11T16:18:14.141Z,168.35
2023-02-11T16:20:21.342Z,126.75
2023-02-11T16:22:26.302Z,125.47
2023-02-11T16:24:31.973Z,83.40
2023-02-11T16:26:43.578Z,107.03
2023-02-11T16:28:45.385Z,91.95
2023-02-11T16:30:53.386Z,99.75
2023-02-11T16:32:55.613Z,111.88
2023-02-11T16:35:00.970Z,112.72
2023-02-11T16:37:05.923Z,115.55
2023-02-11T16:39:07.635Z,138.95
2023-02-11T16:41:11.880Z,103.25
2023-02-11T16:43:13.458Z,150.27
2023-02-11T16:45:15.699Z,155.82
2023-02-11T16:47:24.369Z,127.68
2023-02-11T16:49:27.697Z,102.07
2023-02-11T16:51:29.432Z,152.18
2023-02-11T16:53:31.498Z,124.40
2023-02-11T16:55:34.960Z,175.57
2023-02-11T16:57:36.793Z,169.75
2023-02-11T16:59:38.409Z,131.52
2023-02-11T17:01:40.806Z,171.13
2023-02-11T17:03:43.864Z,179.63
2023-02-11T17:05:58.045Z,125.00
2023-02-11T17:08:01.909Z,140.88
2023-02-11T17:10:03.888Z,193.43
2023-02-11T17:12:06.027Z,296.92
2023-02-11T17:14:07.557Z,176.95
2023-02-11T17:16:21.127Z,164.80
2023-02-11T17:18:22.676Z,140.77
2023-02-11T17:20:24.959Z,146.70
2023-02-11T17:22:26.711Z,122.20
2023-02-11T17:24:28.537Z,149.10
2023-02-11T17:26:30.194Z,141.40
2023-02-11T17:28:32.511Z,154.43
2023-02-11T17:30:34.344Z,487.95
2023-02-11T17:32:36.961Z,463.20
2023-02-11T17:34:38.539Z,249.85
2023-02-11T17:36:41.413Z,1168.13
2023-02-11T17:38:42.922Z,520.58
2023-02-11T17:40:44.624Z,850.53
2023-02-11T17:42:46.310Z,938.67
2023-02-11T17:44:48.062Z,681.28
2023-02-11T17:46:49.596Z,652.53
2023-02-11T17:48:53.198Z,347.65
2023-02-11T17:50:54.781Z,613.08
2023-02-11T17:52:56.980Z,355.63
2023-02-11T17:54:58.592Z,343.73
2023-02-11T17:57:00.164Z,210.85
2023-02-11T17:59:04.901Z,276.05
2023-02-11T18:01:06.687Z,186.05
2023-02-11T18:03:08.468Z,178.00
2023-02-11T18:05:10.486Z,156.75
2023-02-11T18:07:12.348Z,118.43
2023-02-11T18:09:14.113Z,259.17
2023-02-11T18:11:16.976Z,126.03
2023-02-11T18:13:18.504Z,88.63
2023-02-11T18:15:20.010Z,110.10
2023-02-11T18:17:24.198Z,98.53
2023-02-11T18:19:25.816Z,89.20
2023-02-11T18:21:27.394Z,96.47
2023-02-11T18:23:29.119Z,80.10
2023-02-11T18:25:30.794Z,77.75
2023-02-11T18:27:32.958Z,88.20
2023-02-11T18:29:35.599Z,84.38
2023-02-11T18:31:37.622Z,84.50
2023-02-11T18:33:41.142Z,84.43
2023-02-11T18:35:42.911Z,80.15
2023-02-11T18:37:44.521Z,95.32
2023-02-11T18:39:46.058Z,113.03
2023-02-11T18:41:47.748Z,100.45
2023-02-11T18:43:49.476Z,86.72
2023-02-11T18:45:51.638Z,86.72
2023-02-11T18:47:53.499Z,108.22
2023-02-11T18:49:55.105Z,88.65
2023-02-11T18:51:58.913Z,98.97
2023-02-11T18:54:01.683Z,151.45
2023-02-11T18:56:17.868Z,132.32
2023-02-11T18:58:21.379Z,154.00
2023-02-11T19:00:23.520Z,122.50
2023-02-11T19:02:25.317Z,129.15
2023-02-11T19:04:27.043Z,196.48
2023-02-11T19:06:31.932Z,173.10
2023-02-11T19:08:33.589Z,380.95
2023-02-11T19:10:35.338Z,168.05
2023-02-11T19:12:39.381Z,135.68
2023-02-11T19:14:40.966Z,134.85
2023-02-11T19:16:43.938Z,126.43
2023-02-11T19:18:45.495Z,150.57
2023-02-11T19:20:47.202Z,180.05
2023-02-11T19:22:48.761Z,125.05
2023-02-11T19:24:50.379Z,112.10
2023-02-11T19:26:53.683Z,160.88
2023-02-11T19:28:55.809Z,130.55
2023-02-11T19:30:57.455Z,132.75
2023-02-11T19:32:59.265Z,174.60
2023-02-11T19:35:00.808Z,103.35
2023-02-11T19:37:02.322Z,111.32
2023-02-11T19:39:05.162Z,142.40
2023-02-11T19:41:06.899Z,93.65
2023-02-11T19:43:08.660Z,102.32
2023-02-11T19:45:10.294Z,120.20
2023-02-11T19:47:13.630Z,160.68
2023-02-11T19:49:17.824Z,188.40
2023-02-11T19:51:20.714Z,179.75
2023-02-11T19:53:22.721Z,122.65
2023-02-11T19:55:24.350Z,75.10
2023-02-11T19:57:25.973Z,69.05
2023-02-11T19:59:27.839Z,58.72
2023-02-11T20:01:29.471Z,83.68
2023-02-11T20:03:31.041Z,124.18
2023-02-11T20:05:33.082Z,70.32
2023-02-11T20:07:35.211Z,248.75
2023-02-11T20:09:36.703Z,85.65
2023-02-11T20:11:38.698Z,93.03
2023-02-11T20:13:41.943Z,88.45
2023-02-11T20:15:43.506Z,79.55
2023-02-11T20:17:45.371Z,65.82
2023-02-11T20:19:46.913Z,92.25
2023-02-11T20:21:52.153Z,84.20
2023-02-11T20:23:54.368Z,93.55
2023-02-11T20:25:56.168Z,84.25
2023-02-11T20:27:57.833Z,96.93
2023-02-11T20:29:59.366Z,90.30
2023-02-11T20:32:01.288Z,85.53
2023-02-11T20:34:03.000Z,79.43
2023-02-11T20:36:10.815Z,187.38
2023-02-11T20:38:12.492Z,181.90
2023-02-11T20:40:14.231Z,98.78
2023-02-11T20:42:15.797Z,157.75
2023-02-11T20:44:17.373Z,124.57
2023-02-11T20:46:25.298Z,129.40
2023-02-11T20:48:26.845Z,88.80
2023-02-11T20:50:28.357Z,97.88
2023-02-11T20:52:29.884Z,87.13
2023-02-11T20:54:31.597Z,93.07
2023-02-11T20:56:36.872Z,93.47
2023-02-11T20:58:39.153Z,89.35
2023-02-11T21:00:40.861Z,139.80
2023-02-11T21:02:42.407Z,99.90
2023-02-11T21:04:44.119Z,93.30
2023-02-11T21:06:49.172Z,84.63
2023-02-11T21:08:51.313Z,108.40
2023-02-11T21:10:52.877Z,99.97
2023-02-11T21:12:54.536Z,133.15
2023-02-11T21:14:56.496Z,108.35
2023-02-11T21:16:58.218Z,113.88
2023-02-11T21:19:00.755Z,124.60
2023-02-11T21:21:03.147Z,100.22
2023-02-11T21:23:05.955Z,92.72
2023-02-11T21:25:08.693Z,107.55
2023-02-11T21:27:10.344Z,105.43
2023-02-11T21:29:12.074Z,133.38
2023-02-11T21:31:20.660Z,103.05
2023-02-11T21:33:23.628Z,70.20
2023-02-11T21:35:25.578Z,77.03
2023-02-11T21:37:27.136Z,86.75
2023-02-11T21:39:28.668Z,93.00
2023-02-11T21:41:30.568Z,98.05
2023-02-11T21:43:32.419Z,88.78
2023-02-11T21:45:33.930Z,100.97
2023-02-11T21:47:35.707Z,89.93
2023-02-11T21:49:37.239Z,129.40
2023-02-11T21:51:39.464Z,124.28
2023-02-11T21:53:40.987Z,115.65
2023-02-11T21:55:42.700Z,111.43
2023-02-11T21:57:44.194Z,121.43
2023-02-11T21:59:46.080Z,113.97
2023-02-11T22:01:47.767Z,117.70
2023-02-11T22:03:49.915Z,110.18
2023-02-11T22:05:51.551Z,120.78
2023-02-11T22:07:53.094Z,136.88
2023-02-11T22:09:55.810Z,125.15
2023-02-11T22:11:57.362Z,126.18
2023-02-11T22:13:59.322Z,114.28
2023-02-11T22:16:03.102Z,109.43
2023-02-11T22:18:04.792Z,114.07
2023-02-11T22:20:07.786Z,109.68
2023-02-11T22:22:09.477Z,117.32
2023-02-11T22:24:11.014Z,117.30
2023-02-11T22:26:18.325Z,133.65
2023-02-11T22:28:20.083Z,160.13
2023-02-11T22:30:21.754Z,122.28
2023-02-11T22:32:23.278Z,123.28
2023-02-11T22:34:24.791Z,141.30
2023-02-11T22:36:29.030Z,116.80
2023-02-11T22:38:31.846Z,122.07
2023-02-11T22:40:33.362Z,128.80
2023-02-11T22:42:34.872Z,142.52
2023-02-11T22:44:37.569Z,134.77
2023-02-11T22:46:39.509Z,176.52
2023-02-11T22:48:41.216Z,131.43
2023-02-11T22:50:42.870Z,128.48
2023-02-11T22:52:44.385Z,129.88
2023-02-11T22:54:46.025Z,126.00
2023-02-11T22:56:50.733Z,135.70
2023-02-11T22:58:56.151Z,140.32
2023-02-11T23:00:57.807Z,138.68
2023-02-11T23:02:59.349Z,151.70
2023-02-11T23:05:00.912Z,146.25
2023-02-11T23:07:02.424Z,169.10
2023-02-11T23:09:05.782Z,129.75
2023-02-11T23:11:10.579Z,141.25
2023-02-11T23:13:12.319Z,134.77
2023-02-11T23:15:13.991Z,136.95
2023-02-11T23:17:15.523Z,128.73
2023-02-11T23:19:18.222Z,141.82
2023-02-11T23:21:31.243Z,148.90
2023-02-11T23:23:34.332Z,137.40
2023-02-11T23:25:42.952Z,149.20
2023-02-11T23:27:44.540Z,137.38
2023-02-11T23:29:46.100Z,152.75
2023-02-11T23:31:47.831Z,145.65
2023-02-11T23:33:49.947Z,140.35
2023-02-11T23:35:51.593Z,134.68
2023-02-11T23:37:53.561Z,148.77
2023-02-11T23:39:55.056Z,152.38
2023-02-11T23:41:58.988Z,154.48
2023-02-11T23:44:00.610Z,151.30
2023-02-11T23:46:02.218Z,157.82
2023-02-11T23:48:03.837Z,143.52
2023-02-11T23:50:08.136Z,142.18
2023-02-11T23:52:09.666Z,141.68
2023-02-11T23:54:15.121Z,138.20
2023-02-11T23:56:20.128Z,157.38
2023-02-11T23:58:21.859Z,150.70
